Time;durP1;ratioP1;P1;durP2;ratioP2;P2;SDS_P1;SDS_P2;PMS_P1;PMS_P2;Temp;Humidity;BMP_temperature;BMP_pressure;BME280_temperature;BME280_humidity;BME280_pressure;Samples;Min_cycle;Max_cycle;Signal;HPM_P1;HPM_P2
2022/03/11 00:01:52;;;;;;;15.65;8.63;;;38.50;1894.40;;;;;;5148942;27;20045;-56
2022/03/11 00:04:19;;;;;;;15.00;7.80;;;38.50;1894.40;;;;;;5152538;27;20022;-57
2022/03/11 00:06:45;;;;;;;15.70;7.55;;;38.50;1894.40;;;;;;5148059;27;20027;-56
2022/03/11 00:09:12;;;;;;;14.55;7.50;;;38.60;1920.00;;;;;;5140969;27;20023;-57
2022/03/11 00:11:38;;;;;;;14.75;7.40;;;38.70;1894.40;;;;;;5149048;27;20086;-57
2022/03/11 00:14:03;;;;;;;15.75;7.78;;;38.60;1920.00;;;;;;5149623;27;20026;-55
2022/03/11 00:16:29;;;;;;;14.10;6.75;;;38.60;1920.00;;;;;;5150242;27;20039;-56
2022/03/11 00:18:55;;;;;;;12.40;6.63;;;38.60;1920.00;;;;;;5149305;27;20008;-55
2022/03/11 00:21:21;;;;;;;12.35;6.57;;;38.60;1920.00;;;;;;5146379;27;20099;-56
2022/03/11 00:23:46;;;;;;;13.82;6.88;;;38.70;1920.00;;;;;;5147077;27;20027;-56
2022/03/11 00:26:12;;;;;;;13.93;6.65;;;38.70;1920.00;;;;;;5147281;27;20054;-56
2022/03/11 00:28:38;;;;;;;13.55;6.70;;;39.00;1920.00;;;;;;5151062;27;20079;-55
2022/03/11 00:31:07;;;;;;;11.48;6.00;;;38.70;1920.00;;;;;;5147450;27;20101;-56
2022/03/11 00:33:34;;;;;;;14.90;6.78;;;38.70;1920.00;;;;;;5147573;27;20011;-55
2022/03/11 00:36:00;;;;;;;12.80;7.03;;;38.70;1920.00;;;;;;5147360;27;20057;-57
2022/03/11 00:38:26;;;;;;;13.32;6.88;;;38.70;1920.00;;;;;;5148154;27;20037;-55
2022/03/11 00:40:56;;;;;;;13.52;7.00;;;38.70;1920.00;;;;;;5150095;27;20031;-57
2022/03/11 00:43:26;;;;;;;13.05;6.82;;;38.70;1920.00;;;;;;5149288;27;20039;-55
2022/03/11 00:45:52;;;;;;;15.45;6.75;;;38.80;1920.00;;;;;;5148460;27;20034;-57
2022/03/11 00:48:18;;;;;;;11.93;6.50;;;38.80;1920.00;;;;;;5145507;27;20012;-55
2022/03/11 00:50:44;;;;;;;14.30;6.95;;;38.80;1920.00;;;;;;5148060;27;20050;-56
2022/03/11 00:53:10;;;;;;;15.40;7.28;;;38.90;1945.60;;;;;;5145793;27;20023;-54
2022/03/11 00:55:36;;;;;;;16.77;7.63;;;38.90;1945.60;;;;;;5149652;27;20086;-54
2022/03/11 00:58:01;;;;;;;16.98;8.05;;;38.90;1945.60;;;;;;5143215;27;20015;-57
2022/03/11 01:00:27;;;;;;;17.15;8.63;;;38.90;1945.60;;;;;;5146094;27;20022;-56
2022/03/11 01:02:53;;;;;;;16.58;8.07;;;39.00;1971.20;;;;;;5146000;27;20074;-58
2022/03/11 01:05:22;;;;;;;17.55;8.32;;;38.90;1945.60;;;;;;5144730;27;20050;-59
2022/03/11 01:07:48;;;;;;;17.55;8.32;;;38.90;1945.60;;;;;;5145532;27;20023;-55
2022/03/11 01:10:14;;;;;;;18.63;8.55;;;39.00;1945.60;;;;;;5151144;27;20029;-55
2022/03/11 01:12:40;;;;;;;15.43;7.90;;;39.00;1945.60;;;;;;5150882;27;20095;-56
2022/03/11 01:15:07;;;;;;;17.58;8.25;;;39.00;1945.60;;;;;;5147822;27;20016;-56
2022/03/11 01:17:33;;;;;;;15.75;7.80;;;39.00;1945.60;;;;;;5144943;27;20034;-57
2022/03/11 01:19:59;;;;;;;13.13;7.28;;;39.00;1945.60;;;;;;5145156;27;20018;-57
2022/03/11 01:22:26;;;;;;;18.38;7.30;;;39.00;1945.60;;;;;;5149070;27;20067;-57
2022/03/11 01:24:51;;;;;;;13.73;7.20;;;39.10;1945.60;;;;;;5147079;27;20079;-56
2022/03/11 01:27:17;;;;;;;17.77;6.95;;;39.10;1945.60;;;;;;5146202;27;20044;-56
2022/03/11 01:29:43;;;;;;;14.07;6.88;;;39.20;1945.60;;;;;;5145804;27;20031;-56
2022/03/11 01:32:09;;;;;;;14.98;6.85;;;39.20;1945.60;;;;;;5146619;27;20012;-57
2022/03/11 01:34:34;;;;;;;15.40;7.22;;;39.20;1971.20;;;;;;5145477;27;20108;-56
2022/03/11 01:37:00;;;;;;;16.05;7.38;;;39.20;1945.60;;;;;;5150778;27;20035;-54
2022/03/11 01:39:26;;;;;;;13.00;6.97;;;39.10;1945.60;;;;;;5151666;27;20030;-57
2022/03/11 01:41:52;;;;;;;14.07;7.07;;;39.20;1945.60;;;;;;5150556;27;20091;-57
2022/03/11 01:44:18;;;;;;;13.18;7.05;;;39.20;1945.60;;;;;;5154017;27;20044;-55
2022/03/11 01:46:43;;;;;;;13.57;7.15;;;39.30;1945.60;;;;;;5154230;27;20046;-54
2022/03/11 01:49:11;;;;;;;12.80;6.85;;;39.30;1945.60;;;;;;5153847;27;20050;-55
2022/03/11 01:51:42;;;;;;;13.45;7.32;;;39.30;1971.20;;;;;;5152528;27;20011;-55
2022/03/11 01:54:08;;;;;;;16.13;6.75;;;39.30;1945.60;;;;;;5152913;27;20038;-57
2022/03/11 01:56:36;;;;;;;14.32;7.18;;;39.30;1945.60;;;;;;5150639;27;20019;-57
2022/03/11 01:59:02;;;;;;;13.00;6.95;;;39.30;1945.60;;;;;;5151347;27;20019;-58
2022/03/11 02:01:28;;;;;;;12.82;7.18;;;39.30;1945.60;;;;;;5150116;27;20099;-56
2022/03/11 02:03:57;;;;;;;16.30;7.40;;;64.00;1971.20;;;;;;5151891;27;20019;-54
2022/03/11 02:06:23;;;;;;;13.52;6.90;;;64.00;1971.20;;;;;;5151615;27;20043;-57
2022/03/11 02:08:49;;;;;;;12.68;6.63;;;64.00;1971.20;;;;;;5150626;27;19999;-56
2022/03/11 02:11:15;;;;;;;13.30;6.57;;;64.00;1971.20;;;;;;5153974;27;20104;-58
2022/03/11 02:13:42;;;;;;;13.52;6.68;;;64.00;1971.20;;;;;;5152509;27;20040;-53
2022/03/11 02:16:07;;;;;;;12.90;6.97;;;64.20;1996.80;;;;;;5152023;27;20079;-55
2022/03/11 02:18:33;;;;;;;16.33;7.47;;;64.20;1996.80;;;;;;5149667;27;20027;-55
2022/03/11 02:20:59;;;;;;;14.32;7.10;;;64.20;1996.80;;;;;;5152712;27;20080;-54
2022/03/11 02:23:25;;;;;;;17.38;8.00;;;64.20;1996.80;;;;;;5153516;27;20019;-55
2022/03/11 02:25:52;;;;;;;14.20;7.35;;;64.20;1996.80;;;;;;5148160;27;20038;-54
2022/03/11 02:28:18;;;;;;;13.10;7.13;;;64.20;1996.80;;;;;;5152791;27;20023;-54
2022/03/11 02:30:44;;;;;;;13.82;7.05;;;64.00;1996.80;;;;;;5151683;27;20018;-58
2022/03/11 02:33:09;;;;;;;13.18;6.85;;;64.30;1996.80;;;;;;5150828;27;20011;-55
2022/03/11 02:35:35;;;;;;;17.30;8.00;;;64.30;2022.40;;;;;;5153552;27;20091;-54
2022/03/11 02:38:01;;;;;;;15.27;6.82;;;64.30;2022.40;;;;;;5152152;27;20019;-54
2022/03/11 02:40:27;;;;;;;15.23;7.63;;;64.30;2022.40;;;;;;5150410;27;20016;-55
2022/03/11 02:42:52;;;;;;;17.70;8.30;;;64.40;2022.40;;;;;;5150743;27;20055;-55
2022/03/11 02:45:18;;;;;;;14.23;7.35;;;64.40;2022.40;;;;;;5153359;27;20043;-54
2022/03/11 02:47:44;;;;;;;15.25;7.60;;;64.40;2022.40;;;;;;5150891;27;20019;-56
2022/03/11 02:50:09;;;;;;;15.40;7.40;;;64.50;2048.00;;;;;;5150962;27;20026;-54
2022/03/11 02:52:35;;;;;;;19.55;8.07;;;64.50;2048.00;;;;;;5152925;27;19996;-55
2022/03/11 02:55:01;;;;;;;19.17;8.68;;;64.50;2048.00;;;;;;5152094;27;20023;-53
2022/03/11 02:57:27;;;;;;;27.45;10.57;;;64.40;2048.00;;;;;;5153764;27;20071;-55
2022/03/11 02:59:53;;;;;;;26.08;10.38;;;64.40;2048.00;;;;;;5151418;27;20094;-54
2022/03/11 03:02:19;;;;;;;25.23;10.43;;;64.50;2048.00;;;;;;5152538;27;20035;-57
2022/03/11 03:04:44;;;;;;;22.77;8.98;;;64.40;2048.00;;;;;;5152246;27;20026;-54
2022/03/11 03:07:11;;;;;;;22.08;9.18;;;64.40;2048.00;;;;;;5151633;27;20020;-54
2022/03/11 03:09:41;;;;;;;28.63;10.98;;;64.50;2048.00;;;;;;5152969;27;20039;-55
2022/03/11 03:12:11;;;;;;;26.48;10.82;;;64.50;2048.00;;;;;;5150115;27;20016;-54
2022/03/11 03:14:37;;;;;;;33.45;11.65;;;64.50;2048.00;;;;;;5154558;27;20091;-58
2022/03/11 03:17:04;;;;;;;28.95;11.25;;;64.50;2048.00;;;;;;5156145;27;20019;-54
2022/03/11 03:19:30;;;;;;;29.35;11.90;;;64.50;2048.00;;;;;;5154893;27;20042;-54
2022/03/11 03:21:56;;;;;;;29.27;11.52;;;64.50;2073.60;;;;;;5156528;27;20114;-55
2022/03/11 03:24:21;;;;;;;28.77;11.67;;;64.60;2073.60;;;;;;5155668;27;20056;-56
2022/03/11 03:26:47;;;;;;;25.52;10.68;;;64.60;2073.60;;;;;;5154698;27;20334;-60
2022/03/11 03:29:13;;;;;;;22.83;9.68;;;64.70;2073.60;;;;;;5155326;27;20288;-57
2022/03/11 03:31:38;;;;;;;20.38;10.15;;;64.70;2099.20;;;;;;5153133;27;20031;-60
2022/03/11 03:34:04;;;;;;;21.55;9.57;;;64.70;2073.60;;;;;;5154404;27;20042;-57
2022/03/11 03:36:30;;;;;;;22.73;10.10;;;64.80;2099.20;;;;;;5154237;27;20015;-57
2022/03/11 03:38:55;;;;;;;24.00;10.70;;;64.80;2099.20;;;;;;5155943;27;20078;-57
2022/03/11 03:41:21;;;;;;;21.00;10.00;;;64.60;2099.20;;;;;;5155068;27;20010;-58
2022/03/11 03:43:47;;;;;;;29.02;11.70;;;64.80;2099.20;;;;;;5153688;27;20039;-58
2022/03/11 03:46:12;;;;;;;27.75;10.85;;;64.80;2124.80;;;;;;5156034;27;20052;-57
2022/03/11 03:48:38;;;;;;;21.83;10.88;;;64.90;2124.80;;;;;;5154626;27;20046;-56
2022/03/11 03:51:04;;;;;;;20.45;8.95;;;64.90;2124.80;;;;;;5153629;27;20058;-55
2022/03/11 03:53:30;;;;;;;17.85;8.63;;;64.90;2124.80;;;;;;5154939;27;20049;-56
2022/03/11 03:55:56;;;;;;;16.60;8.50;;;64.90;2124.80;;;;;;5153553;27;20012;-54
2022/03/11 03:58:21;;;;;;;16.38;7.65;;;64.90;2124.80;;;;;;5153760;27;20027;-56
2022/03/11 04:00:47;;;;;;;16.90;7.87;;;89.60;2124.80;;;;;;5155740;27;20026;-55
2022/03/11 04:03:13;;;;;;;18.83;8.32;;;89.60;2150.40;;;;;;5156014;27;20012;-55
2022/03/11 04:05:39;;;;;;;16.30;7.50;;;89.70;2124.80;;;;;;5155641;27;20037;-56
2022/03/11 04:08:05;;;;;;;20.75;8.93;;;89.70;2150.40;;;;;;5152509;27;20083;-54
2022/03/11 04:10:30;;;;;;;19.92;9.48;;;89.70;2150.40;;;;;;5150918;27;20015;-55
2022/03/11 04:12:57;;;;;;;19.33;8.52;;;89.70;2150.40;;;;;;5153704;27;20055;-55
2022/03/11 04:15:22;;;;;;;19.63;9.52;;;89.70;2150.40;;;;;;5154390;27;20018;-54
2022/03/11 04:17:48;;;;;;;16.63;8.63;;;89.70;2150.40;;;;;;5154745;27;20040;-55
2022/03/11 04:20:14;;;;;;;16.55;8.52;;;89.70;2176.00;;;;;;5153246;27;20016;-55
2022/03/11 04:22:44;;;;;;;16.50;8.25;;;89.80;2150.40;;;;;;5154667;27;20015;-56
2022/03/11 04:25:14;;;;;;;16.02;7.70;;;89.70;2150.40;;;;;;5153447;27;20094;-58
2022/03/11 04:27:40;;;;;;;15.32;7.95;;;89.80;2124.80;;;;;;5153135;27;20075;-55
2022/03/11 04:30:07;;;;;;;14.85;7.85;;;89.70;2150.40;;;;;;5154651;27;20081;-54
2022/03/11 04:32:33;;;;;;;18.35;8.60;;;89.80;2150.40;;;;;;5155848;27;20003;-54
2022/03/11 04:34:59;;;;;;;17.70;8.73;;;89.80;2176.00;;;;;;5153243;27;20047;-54
2022/03/11 04:37:24;;;;;;;18.17;8.30;;;89.80;2176.00;;;;;;5156525;27;20039;-55
2022/03/11 04:39:50;;;;;;;18.17;8.73;;;89.90;2176.00;;;;;;5151847;27;20038;-54
2022/03/11 04:42:16;;;;;;;16.58;8.10;;;89.90;2176.00;;;;;;5152612;27;20039;-54
2022/03/11 04:44:42;;;;;;;15.07;7.65;;;90.00;2176.00;;;;;;5153212;27;20040;-57
2022/03/11 04:47:07;;;;;;;16.38;8.18;;;90.00;2176.00;;;;;;5153824;27;20027;-54
2022/03/11 04:49:33;;;;;;;18.20;8.38;;;90.00;2176.00;;;;;;5150452;27;20027;-54
2022/03/11 04:52:00;;;;;;;20.85;9.52;;;90.00;2176.00;;;;;;5155247;27;20023;-55
2022/03/11 04:54:25;;;;;;;19.50;9.85;;;90.00;2176.00;;;;;;5152738;27;20068;-54
2022/03/11 04:56:51;;;;;;;19.23;9.48;;;90.00;2176.00;;;;;;5153002;27;20022;-55
2022/03/11 04:59:17;;;;;;;25.08;10.70;;;90.10;2176.00;;;;;;5145733;27;20095;-56
2022/03/11 05:01:43;;;;;;;24.75;10.55;;;90.10;2176.00;;;;;;5146429;27;20027;-55
2022/03/11 05:04:08;;;;;;;25.73;11.10;;;90.10;2176.00;;;;;;5147554;27;20020;-55
2022/03/11 05:06:34;;;;;;;42.90;15.88;;;90.10;2176.00;;;;;;5145168;27;20032;-56
2022/03/11 05:08:59;;;;;;;64.88;21.58;;;90.10;2176.00;;;;;;5146181;27;20007;-55
2022/03/11 05:11:25;;;;;;;31.48;13.40;;;90.00;2176.00;;;;;;5144779;27;20070;-57
2022/03/11 05:13:51;;;;;;;60.65;20.88;;;90.10;2176.00;;;;;;5145861;27;20054;-55
2022/03/11 05:16:16;;;;;;;107.30;31.27;;;90.10;2176.00;;;;;;5146082;27;20046;-55
2022/03/11 05:18:42;;;;;;;528.58;138.38;;;90.10;2176.00;;;;;;5146228;27;20024;-57
2022/03/11 05:21:08;;;;;;;278.45;73.47;;;90.10;2176.00;;;;;;5145864;27;20027;-55
2022/03/11 05:23:33;;;;;;;67.03;23.63;;;90.00;2176.00;;;;;;5145524;27;20008;-56
2022/03/11 05:25:59;;;;;;;57.63;21.27;;;90.00;2176.00;;;;;;5145102;27;20057;-58
2022/03/11 05:28:25;;;;;;;64.70;24.75;;;89.90;2176.00;;;;;;5146796;27;20082;-55
2022/03/11 05:30:51;;;;;;;102.18;37.63;;;89.90;2176.00;;;;;;5148385;27;20037;-58
2022/03/11 05:33:16;;;;;;;42.83;19.20;;;89.90;2176.00;;;;;;5144850;27;20086;-57
2022/03/11 05:35:42;;;;;;;53.05;21.88;;;89.80;2176.00;;;;;;5145445;27;20038;-56
2022/03/11 05:38:08;;;;;;;50.50;17.80;;;89.80;2150.40;;;;;;5145945;27;20015;-55
2022/03/11 05:40:34;;;;;;;44.08;15.80;;;89.80;2124.80;;;;;;5145488;27;20031;-57
2022/03/11 05:43:00;;;;;;;31.05;13.02;;;89.70;2124.80;;;;;;5146757;27;20055;-55
2022/03/11 05:45:25;;;;;;;25.10;11.52;;;89.70;2124.80;;;;;;5145487;27;20038;-56
2022/03/11 05:47:51;;;;;;;26.58;12.75;;;89.60;2124.80;;;;;;5147767;27;20020;-54
2022/03/11 05:50:17;;;;;;;36.80;14.65;;;64.90;2124.80;;;;;;5147719;27;20030;-59
2022/03/11 05:52:43;;;;;;;36.97;16.35;;;64.90;2099.20;;;;;;5144627;27;20067;-59
2022/03/11 05:55:09;;;;;;;45.90;17.05;;;64.80;2099.20;;;;;;5146308;27;20386;-59
2022/03/11 05:57:35;;;;;;;67.53;22.45;;;64.70;2073.60;;;;;;5147613;27;20124;-56
2022/03/11 06:00:04;;;;;;;106.82;31.17;;;64.60;2048.00;;;;;;5145165;27;20024;-57
2022/03/11 06:02:30;;;;;;;99.97;31.77;;;64.50;2048.00;;;;;;5148633;27;20027;-58
2022/03/11 06:04:55;;;;;;;79.55;28.10;;;64.40;2022.40;;;;;;5146103;27;20105;-57
2022/03/11 06:07:21;;;;;;;193.32;59.28;;;64.40;1996.80;;;;;;5147751;27;20026;-57
2022/03/11 06:09:47;;;;;;;141.57;45.95;;;64.20;1996.80;;;;;;5144579;27;20012;-55
2022/03/11 06:12:12;;;;;;;121.07;41.13;;;64.20;1971.20;;;;;;5149244;27;20037;-56
2022/03/11 06:14:38;;;;;;;214.65;54.28;;;64.00;1945.60;;;;;;5145725;27;20087;-56
2022/03/11 06:17:05;;;;;;;204.13;54.75;;;39.30;1920.00;;;;;;5143458;27;20083;-57
2022/03/11 06:19:30;;;;;;;84.82;26.48;;;39.30;1920.00;;;;;;5148964;27;20054;-59
2022/03/11 06:21:57;;;;;;;131.13;42.22;;;39.20;1920.00;;;;;;5151681;27;20023;-57
2022/03/11 06:24:23;;;;;;;126.40;41.38;;;39.00;1894.40;;;;;;5151317;27;20034;-58
2022/03/11 06:26:49;;;;;;;100.70;34.25;;;38.90;1894.40;;;;;;5151434;27;20062;-59
2022/03/11 06:29:15;;;;;;;57.17;21.83;;;38.90;1868.80;;;;;;5152145;27;20016;-57
2022/03/11 06:31:41;;;;;;;76.68;27.13;;;38.70;1843.20;;;;;;5153279;27;20170;-56
2022/03/11 06:34:06;;;;;;;70.43;24.85;;;38.60;1843.20;;;;;;5151744;27;20008;-56
2022/03/11 06:36:34;;;;;;;45.00;18.80;;;38.40;1817.60;;;;;;5150262;27;20046;-58
2022/03/11 06:39:00;;;;;;;22.77;10.48;;;13.20;1740.80;;;;;;5146348;27;20039;-56
2022/03/11 06:41:26;;;;;;;24.10;12.63;;;0.70;1638.40;;;;;;5148388;27;20016;-57
2022/03/11 06:43:51;;;;;;;22.35;10.40;;;51.70;1484.80;;;;;;5144597;27;20047;-55
2022/03/11 06:46:17;;;;;;;27.55;13.10;;;102.50;1331.20;;;;;;5145250;27;20032;-59
2022/03/11 06:48:43;;;;;;;18.58;9.75;;;128.60;1228.80;;;;;;5147465;27;20083;-60
2022/03/11 06:51:09;;;;;;;16.48;8.00;;;154.40;1126.40;;;;;;5151929;27;20019;-58
2022/03/11 06:53:36;;;;;;;13.50;8.10;;;205.20;1024.00;;;;;;5155052;27;20019;-59
2022/03/11 06:56:01;;;;;;;18.52;10.52;;;205.60;947.20;;;;;;5156504;27;20027;-59
2022/03/11 06:58:28;;;;;;;24.77;12.75;;;256.30;870.40;;;;;;5155682;27;20144;-62
2022/03/11 07:00:54;;;;;;;20.65;11.63;;;281.80;844.80;;;;;;5158169;27;20099;-62
2022/03/11 07:03:19;;;;;;;15.10;9.48;;;307.50;819.20;;;;;;5156471;27;20022;-62
2022/03/11 07:05:45;;;;;;;20.05;12.75;;;308.00;768.00;;;;;;5156671;27;20025;-59
2022/03/11 07:08:12;;;;;;;17.75;10.48;;;333.40;742.40;;;;;;5160376;27;20023;-60
2022/03/11 07:10:38;;;;;;;14.23;9.38;;;359.00;691.20;;;;;;5159660;27;20016;-63
2022/03/11 07:13:04;;;;;;;12.93;9.25;;;384.10;665.60;;;;;;5160244;27;20054;-62
2022/03/11 07:15:30;;;;;;;11.38;8.30;;;384.90;614.40;;;;;;5161062;27;20031;-62
2022/03/11 07:17:55;;;;;;;12.57;8.05;;;384.90;614.40;;;;;;5160300;27;20014;-61
2022/03/11 07:20:21;;;;;;;11.52;7.82;;;409.60;665.60;;;;;;5160432;27;20027;-62
2022/03/11 07:22:48;;;;;;;10.88;8.15;;;410.40;614.40;;;;;;5160281;27;20022;-61
2022/03/11 07:25:17;;;;;;;11.18;8.10;;;436.00;588.80;;;;;;5161248;27;20049;-62
2022/03/11 07:27:45;;;;;;;13.55;9.32;;;461.20;588.80;;;;;;5160964;27;20015;-61
2022/03/11 07:30:11;;;;;;;14.52;8.68;;;461.30;588.80;;;;;;5158165;27;20088;-61
2022/03/11 07:32:38;;;;;;;11.23;8.52;;;461.00;588.80;;;;;;5160231;27;20015;-61
2022/03/11 07:35:04;;;;;;;11.63;8.60;;;435.40;614.40;;;;;;5160041;27;20072;-62
2022/03/11 07:37:30;;;;;;;10.18;8.25;;;384.90;640.00;;;;;;5160185;27;20082;-61
2022/03/11 07:39:56;;;;;;;12.77;8.45;;;384.80;640.00;;;;;;5160430;27;20023;-60
2022/03/11 07:42:22;;;;;;;16.23;9.40;;;409.60;665.60;;;;;;5160151;27;20094;-62
2022/03/11 07:44:47;;;;;;;13.50;9.68;;;384.90;614.40;;;;;;5160226;27;20025;-62
2022/03/11 07:47:13;;;;;;;10.18;8.05;;;384.90;640.00;;;;;;5156984;27;20019;-61
2022/03/11 07:49:39;;;;;;;11.25;8.02;;;410.40;614.40;;;;;;5159927;27;20032;-61
2022/03/11 07:52:05;;;;;;;11.82;8.40;;;435.90;563.20;;;;;;5158911;27;20011;-62
2022/03/11 07:54:31;;;;;;;14.88;8.68;;;461.10;563.20;;;;;;5160237;27;20147;-62
2022/03/11 07:56:57;;;;;;;17.77;13.75;;;486.40;537.60;;;;;;5168318;27;20023;-62
2022/03/11 07:59:23;;;;;;;11.02;8.95;;;512.50;486.40;;;;;;5167129;27;20075;-62
2022/03/11 08:01:49;;;;;;;12.18;9.60;;;538.40;460.80;;;;;;5170956;27;20026;-61
2022/03/11 08:05:01;;;;;;;79.70;36.50;;;563.50;460.80;;;;;;5488671;22;20114;-63
2022/03/11 08:07:26;;;;;;;19.98;13.35;;;589.00;435.20;;;;;;5065168;28;20559;-67
2022/03/11 08:09:52;;;;;;;11.60;9.27;;;589.40;409.60;;;;;;5061490;28;20112;-62
2022/03/11 08:12:19;;;;;;;41.30;22.00;;;614.40;384.00;;;;;;5071020;28;20032;-69
2022/03/11 08:14:46;;;;;;;12.30;7.90;;;614.90;384.00;;;;;;5072401;28;20025;-65
2022/03/11 08:17:12;;;;;;;16.83;12.23;;;615.10;358.40;;;;;;5072376;28;20029;-68
2022/03/11 08:19:37;;;;;;;20.55;13.82;;;640.40;332.80;;;;;;5071341;28;20033;-64
2022/03/11 08:22:03;;;;;;;12.90;10.15;;;640.60;332.80;;;;;;5071909;28;20035;-66
2022/03/11 08:24:29;;;;;;;22.10;16.27;;;640.90;307.20;;;;;;5068998;28;20032;-64
2022/03/11 08:26:55;;;;;;;15.05;12.55;;;665.90;332.80;;;;;;5054119;28;20064;-66
2022/03/11 08:29:21;;;;;;;12.68;10.23;;;691.20;332.80;;;;;;5068763;28;20028;-70
2022/03/11 08:31:48;;;;;;;10.48;7.45;;;691.40;307.20;;;;;;5053634;28;20032;-66
2022/03/11 08:34:14;;;;;;;7.80;6.93;;;691.50;307.20;;;;;;5070769;28;20051;-61
2022/03/11 08:36:39;;;;;;;10.32;8.32;;;691.30;307.20;;;;;;5071922;28;20028;-62
2022/03/11 08:39:06;;;;;;;8.68;7.75;;;691.20;307.20;;;;;;5071100;28;20185;-65
2022/03/11 08:41:32;;;;;;;8.65;7.60;;;691.80;307.20;;;;;;5071687;28;20021;-61
2022/03/11 08:43:59;;;;;;;9.10;7.75;;;691.80;307.20;;;;;;5066912;28;20115;-62
2022/03/11 08:46:26;;;;;;;8.90;6.90;;;691.60;281.60;;;;;;5069524;28;20044;-62
2022/03/11 08:48:52;;;;;;;9.80;7.03;;;692.10;281.60;;;;;;5071906;28;20416;-64
2022/03/11 08:51:18;;;;;;;8.55;7.20;;;717.30;281.60;;;;;;5071930;28;20028;-68
2022/03/11 08:53:44;;;;;;;10.10;8.15;;;717.70;281.60;;;;;;5054833;28;20531;-63
2022/03/11 08:56:10;;;;;;;8.20;7.40;;;717.70;281.60;;;;;;5073457;28;20107;-66
2022/03/11 08:58:37;;;;;;;8.57;7.20;;;742.70;281.60;;;;;;5073801;28;20025;-62
2022/03/11 09:01:03;;;;;;;8.32;6.93;;;717.60;256.00;;;;;;5073871;28;20442;-60
2022/03/11 09:03:29;;;;;;;8.88;7.22;;;742.40;307.20;;;;;;5072633;28;20032;-61
2022/03/11 09:05:56;;;;;;;7.38;6.50;;;717.60;281.60;;;;;;5071924;28;20059;-72
2022/03/11 09:08:22;;;;;;;20.08;14.10;;;717.10;281.60;;;;;;5072585;28;20071;-68
2022/03/11 09:10:47;;;;;;;7.78;6.50;;;742.80;281.60;;;;;;5072232;28;20532;-63
2022/03/11 09:13:13;;;;;;;10.43;8.63;;;768.10;256.00;;;;;;5072581;28;20021;-61
2022/03/11 09:15:39;;;;;;;12.52;10.50;;;743.20;256.00;;;;;;5072598;28;20428;-62
2022/03/11 09:18:05;;;;;;;8.18;6.65;;;768.50;256.00;;;;;;5072187;28;20038;-67
2022/03/11 09:20:30;;;;;;;8.13;7.20;;;768.50;230.40;;;;;;5071918;28;20036;-65
2022/03/11 09:22:56;;;;;;;7.68;6.88;;;768.30;256.00;;;;;;5072407;28;20077;-64
2022/03/11 09:25:22;;;;;;;10.80;9.25;;;793.60;256.00;;;;;;5071928;28;20137;-70
2022/03/11 09:27:48;;;;;;;10.90;9.20;;;794.40;230.40;;;;;;5070999;28;20040;-64
2022/03/11 09:30:14;;;;;;;8.00;7.07;;;794.40;230.40;;;;;;5072337;28;20020;-67
2022/03/11 09:32:39;;;;;;;13.23;10.43;;;794.10;230.40;;;;;;5071239;28;20021;-62
2022/03/11 09:35:07;;;;;;;7.03;6.32;;;793.90;230.40;;;;;;5072023;28;20151;-62
2022/03/11 09:37:32;;;;;;;7.25;6.50;;;793.60;230.40;;;;;;5071747;28;20044;-61
2022/03/11 09:39:58;;;;;;;6.95;6.22;;;768.50;230.40;;;;;;5072208;28;20021;-61
2022/03/11 09:42:24;;;;;;;12.18;9.73;;;768.70;204.80;;;;;;5072383;28;20024;-62
2022/03/11 09:44:55;;;;;;;15.32;11.90;;;768.30;230.40;;;;;;5071963;28;20037;-66
2022/03/11 09:47:22;;;;;;;10.13;6.57;;;768.80;230.40;;;;;;5070216;28;20028;-66
2022/03/11 09:49:49;;;;;;;7.65;6.85;;;794.10;230.40;;;;;;5072015;28;20021;-68
2022/03/11 09:52:17;;;;;;;6.97;6.00;;;819.70;230.40;;;;;;5069191;28;20024;-67
2022/03/11 09:54:45;;;;;;;8.27;7.38;;;794.40;230.40;;;;;;5071976;28;20037;-70
2022/03/11 09:57:23;;;;;;;12.05;10.85;;;819.70;230.40;;;;;;5071963;28;20472;-69
2022/03/11 09:59:50;;;;;;;8.80;7.90;;;844.90;256.00;;;;;;5072258;28;20025;-62
2022/03/11 10:02:17;;;;;;;9.93;8.05;;;845.20;256.00;;;;;;5069463;28;20074;-69
2022/03/11 10:04:56;;;;;;;18.30;14.30;;;845.00;256.00;;;;;;5072579;28;20124;-67
2022/03/11 10:07:22;;;;;;;8.90;6.53;;;819.70;230.40;;;;;;5073190;28;20055;-66
2022/03/11 10:09:48;;;;;;;10.15;8.50;;;844.90;256.00;;;;;;5073041;28;20462;-73
2022/03/11 10:12:24;;;;;;;22.40;19.85;;;819.70;230.40;;;;;;5072174;28;20032;-64
2022/03/11 10:15:01;;;;;;;7.05;6.35;;;820.00;230.40;;;;;;5073167;28;20496;-67
2022/03/11 10:17:35;;;;;;;16.98;12.48;;;844.80;256.00;;;;;;5073094;28;20039;-64
2022/03/11 10:20:05;;;;;;;12.32;10.25;;;845.50;256.00;;;;;;5073056;28;20028;-70
2022/03/11 10:22:34;;;;;;;10.27;8.45;;;820.00;230.40;;;;;;5075895;28;20078;-67
2022/03/11 10:25:13;;;;;;;7.18;6.10;;;845.60;256.00;;;;;;5076930;28;20033;-68
2022/03/11 10:28:05;;;;;;;7.38;6.28;;;870.50;256.00;;;;;;5077143;28;20021;-67
2022/03/11 10:30:36;;;;;;;12.75;9.07;;;845.40;256.00;;;;;;5077064;28;20029;-62
2022/03/11 10:33:11;;;;;;;12.18;10.93;;;793.80;230.40;;;;;;5076970;28;20017;-62
2022/03/11 10:35:38;;;;;;;22.80;15.00;;;845.30;256.00;;;;;;5076787;28;20095;-63
2022/03/11 10:38:04;;;;;;;6.30;5.70;;;844.90;256.00;;;;;;5076591;28;20497;-68
2022/03/11 10:40:32;;;;;;;7.82;7.03;;;845.30;256.00;;;;;;5077165;28;20020;-67
2022/03/11 10:43:21;;;;;;;7.82;7.03;;;845.20;256.00;;;;;;5076578;28;20055;-65
2022/03/11 10:45:53;;;;;;;8.00;7.20;;;845.70;256.00;;;;;;5076799;28;20039;-68
2022/03/11 10:48:46;;;;;;;9.45;7.90;;;845.60;256.00;;;;;;5076730;28;20078;-70
2022/03/11 10:51:14;;;;;;;9.30;8.30;;;845.60;256.00;;;;;;5076940;28;20020;-71
2022/03/11 10:53:41;;;;;;;10.00;8.98;;;845.30;256.00;;;;;;5058723;28;20036;-70
2022/03/11 10:56:08;;;;;;;7.65;6.05;;;845.10;256.00;;;;;;5058711;28;20047;-67
2022/03/11 10:58:36;;;;;;;7.68;6.88;;;845.50;256.00;;;;;;5076237;28;20028;-68
2022/03/11 11:01:02;;;;;;;8.77;6.57;;;845.40;256.00;;;;;;5050564;28;20017;-69
2022/03/11 11:03:28;;;;;;;6.43;5.82;;;845.30;256.00;;;;;;5053739;28;20033;-70
2022/03/11 11:05:55;;;;;;;9.85;8.85;;;845.30;256.00;;;;;;5055005;28;20505;-69
2022/03/11 11:08:22;;;;;;;8.50;7.70;;;845.30;256.00;;;;;;5055307;28;20048;-77
2022/03/11 11:10:49;;;;;;;13.55;11.05;;;845.00;256.00;;;;;;5054562;28;20742;-72
2022/03/11 11:13:15;;;;;;;8.80;7.70;;;845.70;256.00;;;;;;5070794;28;20368;-66
2022/03/11 11:15:41;;;;;;;15.18;11.73;;;870.60;256.00;;;;;;5074955;28;20029;-66
2022/03/11 11:18:12;;;;;;;8.60;7.70;;;870.50;256.00;;;;;;5075292;28;20082;-63
2022/03/11 11:20:51;;;;;;;11.52;10.32;;;845.30;256.00;;;;;;5075045;28;20482;-67
2022/03/11 11:23:17;;;;;;;13.77;11.63;;;845.10;256.00;;;;;;5074714;28;20032;-69
2022/03/11 11:25:44;;;;;;;7.07;6.38;;;845.00;256.00;;;;;;5074407;28;20040;-66
2022/03/11 11:28:17;;;;;;;5.95;5.40;;;820.00;230.40;;;;;;5075126;28;20032;-65
2022/03/11 11:30:45;;;;;;;6.37;5.40;;;819.70;230.40;;;;;;5075009;28;20028;-70
2022/03/11 11:33:12;;;;;;;8.40;6.32;;;819.50;230.40;;;;;;5070759;28;20055;-64
2022/03/11 11:35:40;;;;;;;6.20;5.60;;;819.60;230.40;;;;;;5062848;28;20045;-66
2022/03/11 11:38:27;;;;;;;7.70;6.95;;;819.70;230.40;;;;;;5074869;28;20043;-62
2022/03/11 11:40:54;;;;;;;8.13;6.78;;;844.80;256.00;;;;;;5072235;28;20032;-62
2022/03/11 11:43:29;;;;;;;9.30;8.35;;;845.20;256.00;;;;;;5074374;28;20094;-64
2022/03/11 11:46:16;;;;;;;18.50;16.60;;;844.80;256.00;;;;;;5074409;28;20052;-63
2022/03/11 11:48:45;;;;;;;10.60;9.50;;;844.90;256.00;;;;;;5074978;28;20032;-68
2022/03/11 11:51:22;;;;;;;6.53;5.72;;;845.30;256.00;;;;;;5073883;28;20044;-62
2022/03/11 11:53:52;;;;;;;5.80;5.30;;;820.00;230.40;;;;;;5056345;28;20155;-66
2022/03/11 11:56:29;;;;;;;6.00;5.40;;;819.20;230.40;;;;;;5072582;28;20028;-66
2022/03/11 11:59:02;;;;;;;9.77;8.40;;;794.50;230.40;;;;;;5074003;28;20385;-68
2022/03/11 12:01:59;;;;;;;6.80;6.10;;;794.20;230.40;;;;;;5073838;28;20055;-62
2022/03/11 12:04:37;;;;;;;9.63;8.68;;;794.00;230.40;;;;;;5072564;28;20378;-64
2022/03/11 12:07:09;;;;;;;7.40;6.70;;;794.40;230.40;;;;;;5073652;28;20188;-63
2022/03/11 12:09:47;;;;;;;7.65;6.85;;;794.50;230.40;;;;;;5073466;28;20028;-65
2022/03/11 12:12:22;;;;;;;8.98;7.88;;;819.50;230.40;;;;;;5054143;28;20171;-69
2022/03/11 12:15:00;;;;;;;14.55;12.27;;;819.40;230.40;;;;;;5071497;28;20108;-67
2022/03/11 12:17:39;;;;;;;9.52;8.55;;;794.30;230.40;;;;;;5072313;28;20032;-71